createdAt,value
2019-03-31T00:03:02.794Z,9.98
2019-03-31T00:08:10.160Z,11.75
2019-03-31T00:13:16.917Z,9.73
2019-03-31T00:18:23.613Z,15.70
2019-03-31T00:23:30.539Z,15.75
2019-03-31T00:28:37.410Z,10.25
2019-03-31T00:33:44.141Z,8.30
2019-03-31T00:38:50.957Z,6.42
2019-03-31T00:43:57.789Z,8.08
2019-03-31T00:49:04.657Z,10.82
2019-03-31T00:54:11.238Z,8.68
2019-03-31T00:59:18.373Z,5.55
2019-03-31T01:04:29.530Z,4.80
2019-03-31T01:09:36.799Z,5.28
2019-03-31T01:14:44.369Z,4.97
2019-03-31T01:19:53.042Z,5.42
2019-03-31T01:24:59.873Z,6.10
2019-03-31T01:30:08.888Z,5.85
2019-03-31T01:35:15.965Z,5.92
2019-03-31T01:40:22.624Z,5.40
2019-03-31T01:45:29.287Z,6.00
2019-03-31T01:50:35.779Z,7.47
2019-03-31T01:55:42.370Z,5.60
2019-03-31T02:00:55.577Z,6.12
2019-03-31T02:06:02.365Z,5.42
2019-03-31T02:11:09.080Z,5.10
2019-03-31T02:16:16.007Z,5.53
2019-03-31T02:21:22.868Z,5.72
2019-03-31T02:26:29.250Z,5.20
2019-03-31T02:31:36.033Z,5.53
2019-03-31T02:36:42.889Z,5.53
2019-03-31T02:41:49.685Z,5.05
2019-03-31T02:46:56.327Z,5.90
2019-03-31T02:52:03.105Z,5.45
2019-03-31T02:57:10.031Z,5.37
2019-03-31T03:02:17.106Z,5.92
2019-03-31T03:07:25.137Z,5.97
2019-03-31T03:12:35.490Z,5.97
2019-03-31T03:17:42.261Z,5.33
2019-03-31T03:22:49.143Z,5.72
2019-03-31T03:27:55.822Z,6.28
2019-03-31T03:33:14.616Z,6.40
2019-03-31T03:38:11.063Z,6.10
2019-03-31T03:43:17.652Z,5.92
2019-03-31T03:48:24.287Z,6.40
2019-03-31T03:53:31.011Z,8.30
2019-03-31T03:58:38.325Z,7.55
2019-03-31T04:03:45.038Z,7.45
2019-03-31T04:08:51.809Z,6.78
2019-03-31T04:13:58.940Z,5.67
2019-03-31T04:19:05.610Z,6.12
2019-03-31T04:24:12.316Z,6.50
2019-03-31T04:29:18.848Z,6.80
2019-03-31T04:34:25.601Z,6.58
2019-03-31T04:39:32.245Z,6.03
2019-03-31T04:44:38.861Z,6.97
2019-03-31T04:49:45.585Z,6.92
2019-03-31T04:54:52.384Z,7.05
2019-03-31T04:59:59.152Z,7.33
2019-03-31T05:05:05.958Z,7.22
2019-03-31T05:10:12.669Z,7.53
2019-03-31T05:15:19.641Z,6.85
2019-03-31T05:20:26.254Z,6.65
2019-03-31T05:25:32.885Z,7.20
2019-03-31T05:30:39.869Z,6.60
2019-03-31T05:35:46.636Z,7.15
2019-03-31T05:40:53.599Z,6.92
2019-03-31T05:46:00.391Z,7.80
2019-03-31T05:51:07.105Z,8.55
2019-03-31T05:56:13.777Z,8.53
2019-03-31T06:01:20.501Z,7.83
2019-03-31T06:06:27.343Z,9.30
2019-03-31T06:11:34.171Z,9.33
2019-03-31T06:16:40.925Z,7.90
2019-03-31T06:21:47.614Z,8.60
2019-03-31T06:26:54.251Z,9.05
2019-03-31T06:32:00.904Z,12.53
2019-03-31T06:37:07.845Z,9.15
2019-03-31T06:42:14.421Z,8.15
2019-03-31T06:47:21.018Z,8.33
2019-03-31T06:52:27.769Z,7.85
2019-03-31T06:57:34.398Z,7.33
2019-03-31T07:02:41.215Z,7.03
2019-03-31T07:07:47.762Z,7.20
2019-03-31T07:12:54.499Z,6.85
2019-03-31T07:18:01.242Z,5.70
2019-03-31T07:23:07.933Z,6.03
2019-03-31T07:28:14.770Z,6.40
2019-03-31T07:33:21.619Z,6.97
2019-03-31T07:38:38.398Z,6.42
2019-03-31T07:43:36.606Z,6.37
2019-03-31T07:48:43.900Z,5.85
2019-03-31T07:53:50.573Z,5.53
2019-03-31T07:58:57.224Z,5.85
2019-03-31T08:04:04.105Z,5.33
2019-03-31T08:09:10.766Z,5.42
2019-03-31T08:14:17.439Z,5.33
2019-03-31T08:19:24.238Z,5.25
2019-03-31T08:24:41.271Z,4.85
2019-03-31T08:29:55.681Z,5.37
2019-03-31T08:34:56.815Z,5.25
2019-03-31T08:40:03.890Z,5.87
2019-03-31T08:45:10.745Z,4.60
2019-03-31T08:50:18.328Z,4.33
2019-03-31T08:55:25.002Z,4.87
2019-03-31T09:00:37.014Z,5.00
2019-03-31T09:05:43.585Z,4.83
2019-03-31T09:10:50.333Z,4.35
2019-03-31T09:15:56.988Z,4.30
2019-03-31T09:21:03.862Z,4.12
2019-03-31T09:26:10.593Z,3.60
2019-03-31T09:31:17.608Z,4.12
2019-03-31T09:36:24.120Z,4.00
2019-03-31T09:41:30.929Z,3.52
2019-03-31T09:46:37.792Z,3.80
2019-03-31T09:51:44.584Z,3.80
2019-03-31T09:56:51.383Z,5.33
2019-03-31T10:01:58.045Z,3.95
2019-03-31T10:07:04.724Z,3.42
2019-03-31T10:12:11.319Z,4.10
2019-03-31T10:17:18.008Z,4.80
2019-03-31T10:22:24.764Z,3.40
2019-03-31T10:27:31.382Z,3.45
2019-03-31T10:32:38.013Z,3.58
2019-03-31T10:37:44.683Z,3.47
2019-03-31T10:42:51.402Z,3.65
2019-03-31T10:47:58.219Z,2.90
2019-03-31T10:53:04.938Z,4.12
2019-03-31T10:58:11.633Z,3.10
2019-03-31T11:03:18.475Z,3.58
2019-03-31T11:08:25.149Z,4.58
2019-03-31T11:13:31.716Z,9.15
2019-03-31T11:18:38.418Z,2.65
2019-03-31T11:23:45.116Z,2.40
2019-03-31T11:28:51.803Z,2.72
2019-03-31T11:33:58.452Z,2.62
2019-03-31T11:39:06.752Z,4.28
2019-03-31T11:44:13.498Z,9.95
2019-03-31T11:49:20.187Z,4.72
2019-03-31T11:54:26.856Z,2.60
2019-03-31T11:59:33.477Z,2.70
2019-03-31T12:04:40.263Z,2.20
2019-03-31T12:09:46.948Z,2.25
2019-03-31T12:15:00.345Z,2.27
2019-03-31T12:20:01.952Z,1.98
2019-03-31T12:25:09.023Z,2.00
2019-03-31T12:30:18.400Z,2.20
2019-03-31T12:35:25.038Z,2.00
2019-03-31T12:40:33.114Z,2.22
2019-03-31T12:45:42.932Z,2.20
2019-03-31T12:50:48.473Z,1.98
2019-03-31T12:56:00.366Z,1.70
2019-03-31T13:01:03.636Z,2.20
2019-03-31T13:06:10.462Z,1.90
2019-03-31T13:11:17.336Z,2.00
2019-03-31T13:16:24.125Z,2.08
2019-03-31T13:21:30.865Z,2.00
2019-03-31T13:26:37.558Z,3.98
2019-03-31T13:31:44.302Z,2.70
2019-03-31T13:36:51.158Z,3.25
2019-03-31T13:41:57.845Z,1.60
2019-03-31T13:47:04.644Z,2.10
2019-03-31T13:52:11.439Z,2.22
2019-03-31T13:57:18.345Z,2.30
2019-03-31T14:02:25.343Z,2.12
2019-03-31T14:07:32.195Z,2.70
2019-03-31T14:12:38.881Z,2.35
2019-03-31T14:17:45.676Z,2.10
2019-03-31T14:22:52.481Z,1.80
2019-03-31T14:27:59.377Z,2.05
2019-03-31T14:33:06.526Z,2.00
2019-03-31T14:38:13.271Z,2.33
2019-03-31T14:43:19.981Z,1.50
2019-03-31T14:48:26.840Z,2.15
2019-03-31T14:53:33.470Z,2.00
2019-03-31T14:58:40.294Z,1.60
2019-03-31T15:03:46.923Z,1.75
2019-03-31T15:08:54.734Z,1.40
2019-03-31T15:14:01.415Z,1.50
2019-03-31T15:19:08.028Z,1.50
2019-03-31T15:24:14.594Z,1.60
2019-03-31T15:29:21.375Z,1.57
2019-03-31T15:34:28.047Z,1.67
2019-03-31T15:39:34.831Z,1.70
2019-03-31T15:44:41.471Z,1.90
2019-03-31T15:49:48.634Z,1.82
2019-03-31T15:54:55.292Z,1.70
2019-03-31T16:00:01.924Z,1.60
2019-03-31T16:05:12.698Z,1.52
2019-03-31T16:10:18.166Z,1.35
2019-03-31T16:15:24.557Z,1.35
2019-03-31T16:20:30.838Z,1.40
2019-03-31T16:25:39.203Z,1.55
2019-03-31T16:30:45.663Z,1.50
2019-03-31T16:35:51.896Z,1.32
2019-03-31T16:40:58.277Z,1.40
2019-03-31T16:46:04.663Z,1.50
2019-03-31T16:51:10.541Z,1.55
2019-03-31T16:56:16.986Z,1.40
2019-03-31T17:01:23.469Z,1.32
2019-03-31T17:06:29.484Z,1.50
2019-03-31T17:11:35.881Z,1.50
2019-03-31T17:16:42.010Z,1.65
2019-03-31T17:21:48.304Z,1.57
2019-03-31T17:26:54.578Z,3.40
2019-03-31T17:32:00.775Z,3.67
2019-03-31T17:37:07.027Z,3.85
2019-03-31T17:42:13.309Z,1.67
2019-03-31T17:47:19.833Z,1.70
2019-03-31T17:52:26.116Z,1.60
2019-03-31T17:57:32.325Z,1.87
2019-03-31T18:02:38.610Z,1.50
2019-03-31T18:07:44.499Z,2.87
2019-03-31T18:12:50.374Z,2.00
2019-03-31T18:17:56.243Z,1.92
2019-03-31T18:23:02.632Z,1.70
2019-03-31T18:28:08.464Z,1.80
2019-03-31T18:33:14.340Z,2.12
2019-03-31T18:38:20.219Z,1.95
2019-03-31T18:43:26.115Z,1.77
2019-03-31T18:48:31.966Z,2.20
2019-03-31T18:53:52.078Z,2.42
2019-03-31T18:59:14.242Z,3.00
2019-03-31T19:04:34.547Z,3.60
2019-03-31T19:10:02.622Z,3.27
2019-03-31T19:15:26.609Z,3.85
2019-03-31T19:20:52.781Z,3.67
2019-03-31T19:26:20.855Z,3.95
2019-03-31T19:31:53.054Z,5.10
2019-03-31T19:37:14.398Z,3.20
2019-03-31T19:42:34.843Z,3.00
2019-03-31T19:48:05.941Z,3.15
2019-03-31T19:53:33.928Z,3.70
2019-03-31T19:59:07.939Z,3.55
2019-03-31T20:04:35.963Z,3.60
2019-03-31T20:09:47.674Z,4.42
2019-03-31T20:15:24.990Z,6.30
2019-03-31T20:20:47.359Z,7.03
2019-03-31T20:26:04.847Z,8.33
2019-03-31T20:31:26.405Z,6.55
2019-03-31T20:36:46.181Z,7.55
2019-03-31T20:41:57.596Z,8.23
2019-03-31T20:47:03.981Z,13.38
2019-03-31T20:52:10.156Z,9.65
2019-03-31T20:57:16.456Z,4.85
2019-03-31T21:02:22.804Z,3.10
2019-03-31T21:07:29.063Z,11.20
2019-03-31T21:12:35.448Z,4.20
2019-03-31T21:17:42.039Z,8.05
2019-03-31T21:22:48.731Z,6.20
2019-03-31T21:27:55.229Z,7.85
2019-03-31T21:33:01.558Z,10.98
2019-03-31T21:38:08.002Z,19.45
2019-03-31T21:43:14.332Z,28.15
2019-03-31T21:48:20.925Z,33.02
2019-03-31T21:53:27.154Z,27.30
2019-03-31T21:58:33.473Z,20.60
2019-03-31T22:03:40.182Z,28.20
2019-03-31T22:08:46.452Z,36.45
2019-03-31T22:13:52.700Z,7.05
2019-03-31T22:18:58.943Z,6.10
2019-03-31T22:24:05.278Z,5.62
2019-03-31T22:29:11.456Z,4.60
2019-03-31T22:34:17.874Z,4.75
2019-03-31T22:39:24.021Z,4.03
2019-03-31T22:44:30.100Z,4.03
2019-03-31T22:49:36.356Z,3.47
2019-03-31T22:54:42.676Z,5.35
2019-03-31T22:59:48.881Z,5.53
2019-03-31T23:04:55.133Z,7.72
2019-03-31T23:10:01.654Z,8.33
2019-03-31T23:15:08.315Z,8.58
2019-03-31T23:20:14.607Z,6.10
2019-03-31T23:25:20.988Z,4.50
2019-03-31T23:30:27.344Z,6.95
2019-03-31T23:35:33.619Z,7.22
2019-03-31T23:40:39.801Z,8.10
2019-03-31T23:45:46.358Z,8.55
2019-03-31T23:50:52.654Z,7.55
2019-03-31T23:56:18.897Z,7.70
